sensor_id;sensor_type;location;lat;lon;timestamp;pressure;altitude;pressure_sealevel;temperature;humidity
58785;BME280;44557;51.862;19.378;2022-11-20T00:00:16;98987.54;;;-2.55;66.17
58785;BME280;44557;51.862;19.378;2022-11-20T00:01:38;98987.65;;;-2.54;66.27
58785;BME280;44557;51.862;19.378;2022-11-20T00:02:38;98986.89;;;-2.51;66.30
58785;BME280;44557;51.862;19.378;2022-11-20T00:03:40;98989.91;;;-2.53;66.67
58785;BME280;44557;51.862;19.378;2022-11-20T00:04:41;98989.16;;;-2.56;66.51
58785;BME280;44557;51.862;19.378;2022-11-20T00:05:43;98989.96;;;-2.53;66.45
58785;BME280;44557;51.862;19.378;2022-11-20T00:06:43;98989.64;;;-2.50;66.64
58785;BME280;44557;51.862;19.378;2022-11-20T00:07:44;98989.80;;;-2.41;66.39
58785;BME280;44557;51.862;19.378;2022-11-20T00:08:46;98992.60;;;-2.42;66.56
58785;BME280;44557;51.862;19.378;2022-11-20T00:09:47;98992.92;;;-2.47;66.73
58785;BME280;44557;51.862;19.378;2022-11-20T00:10:47;98991.19;;;-2.39;66.61
58785;BME280;44557;51.862;19.378;2022-11-20T00:11:48;98994.70;;;-2.40;66.63
58785;BME280;44557;51.862;19.378;2022-11-20T00:12:49;98994.27;;;-2.41;66.57
58785;BME280;44557;51.862;19.378;2022-11-20T00:13:53;98993.78;;;-2.45;66.48
58785;BME280;44557;51.862;19.378;2022-11-20T00:14:54;98994.77;;;-2.44;66.46
58785;BME280;44557;51.862;19.378;2022-11-20T00:15:59;99001.11;;;-2.52;66.50
58785;BME280;44557;51.862;19.378;2022-11-20T00:17:01;98997.19;;;-2.47;66.57
58785;BME280;44557;51.862;19.378;2022-11-20T00:18:02;98992.98;;;-2.49;66.62
58785;BME280;44557;51.862;19.378;2022-11-20T00:19:02;98993.36;;;-2.49;66.49
58785;BME280;44557;51.862;19.378;2022-11-20T00:20:04;98992.02;;;-2.47;66.41
58785;BME280;44557;51.862;19.378;2022-11-20T00:21:11;98998.00;;;-2.47;66.44
58785;BME280;44557;51.862;19.378;2022-11-20T00:22:13;98998.42;;;-2.52;66.60
58785;BME280;44557;51.862;19.378;2022-11-20T00:23:14;98997.02;;;-2.48;66.40
58785;BME280;44557;51.862;19.378;2022-11-20T00:24:15;98996.88;;;-2.57;66.51
58785;BME280;44557;51.862;19.378;2022-11-20T00:25:16;98998.38;;;-2.56;66.63
58785;BME280;44557;51.862;19.378;2022-11-20T00:26:18;98996.81;;;-2.53;66.42
58785;BME280;44557;51.862;19.378;2022-11-20T00:27:20;98999.30;;;-2.51;66.55
58785;BME280;44557;51.862;19.378;2022-11-20T00:28:20;98999.89;;;-2.51;66.53
58785;BME280;44557;51.862;19.378;2022-11-20T00:29:21;98993.20;;;-2.55;66.70
58785;BME280;44557;51.862;19.378;2022-11-20T00:30:22;98996.80;;;-2.48;66.62
58785;BME280;44557;51.862;19.378;2022-11-20T00:31:23;98996.70;;;-2.52;66.65
58785;BME280;44557;51.862;19.378;2022-11-20T00:32:24;98993.91;;;-2.54;66.70
58785;BME280;44557;51.862;19.378;2022-11-20T00:33:25;98997.73;;;-2.49;66.53
58785;BME280;44557;51.862;19.378;2022-11-20T00:34:26;98993.90;;;-2.47;66.70
58785;BME280;44557;51.862;19.378;2022-11-20T00:35:27;98997.89;;;-2.48;66.53
58785;BME280;44557;51.862;19.378;2022-11-20T00:36:31;99001.45;;;-2.49;66.72
58785;BME280;44557;51.862;19.378;2022-11-20T00:37:32;98995.46;;;-2.46;66.58
58785;BME280;44557;51.862;19.378;2022-11-20T00:38:34;98994.55;;;-2.46;66.71
58785;BME280;44557;51.862;19.378;2022-11-20T00:39:35;98992.97;;;-2.46;66.80
58785;BME280;44557;51.862;19.378;2022-11-20T00:40:36;98992.81;;;-2.45;66.70
58785;BME280;44557;51.862;19.378;2022-11-20T00:41:37;98993.61;;;-2.44;66.51
58785;BME280;44557;51.862;19.378;2022-11-20T00:42:38;98992.27;;;-2.44;66.75
58785;BME280;44557;51.862;19.378;2022-11-20T00:43:38;98992.17;;;-2.42;66.71
58785;BME280;44557;51.862;19.378;2022-11-20T00:44:39;98994.48;;;-2.41;66.66
58785;BME280;44557;51.862;19.378;2022-11-20T00:45:40;98994.66;;;-2.47;66.87
58785;BME280;44557;51.862;19.378;2022-11-20T00:46:41;98998.27;;;-2.46;66.95
58785;BME280;44557;51.862;19.378;2022-11-20T00:47:42;98996.59;;;-2.45;66.79
58785;BME280;44557;51.862;19.378;2022-11-20T00:48:44;98995.95;;;-2.48;67.01
58785;BME280;44557;51.862;19.378;2022-11-20T00:49:45;98995.35;;;-2.47;67.05
58785;BME280;44557;51.862;19.378;2022-11-20T00:50:46;98997.02;;;-2.46;66.99
58785;BME280;44557;51.862;19.378;2022-11-20T00:51:46;98997.23;;;-2.44;67.03
58785;BME280;44557;51.862;19.378;2022-11-20T00:52:47;98993.56;;;-2.43;67.01
58785;BME280;44557;51.862;19.378;2022-11-20T00:53:48;98995.39;;;-2.41;67.08
58785;BME280;44557;51.862;19.378;2022-11-20T00:54:50;98997.23;;;-2.34;67.01
58785;BME280;44557;51.862;19.378;2022-11-20T00:56:59;98993.19;;;-2.38;66.97
58785;BME280;44557;51.862;19.378;2022-11-20T00:58:00;98992.81;;;-2.37;66.88
58785;BME280;44557;51.862;19.378;2022-11-20T00:59:00;98990.74;;;-2.31;66.95
58785;BME280;44557;51.862;19.378;2022-11-20T01:00:02;98989.55;;;-2.28;66.73
58785;BME280;44557;51.862;19.378;2022-11-20T01:01:11;98990.54;;;-2.37;66.94
58785;BME280;44557;51.862;19.378;2022-11-20T01:02:12;98989.30;;;-2.34;67.06
58785;BME280;44557;51.862;19.378;2022-11-20T01:03:13;98989.84;;;-2.33;66.97
58785;BME280;44557;51.862;19.378;2022-11-20T01:04:14;98989.79;;;-2.32;66.83
58785;BME280;44557;51.862;19.378;2022-11-20T01:05:15;98989.37;;;-2.36;66.95
58785;BME280;44557;51.862;19.378;2022-11-20T01:06:21;98988.06;;;-2.30;67.11
58785;BME280;44557;51.862;19.378;2022-11-20T01:07:22;98992.17;;;-2.34;67.17
58785;BME280;44557;51.862;19.378;2022-11-20T01:08:23;98986.17;;;-2.34;67.06
58785;BME280;44557;51.862;19.378;2022-11-20T01:09:24;98988.33;;;-2.33;67.31
58785;BME280;44557;51.862;19.378;2022-11-20T01:10:25;98986.38;;;-2.31;67.30
58785;BME280;44557;51.862;19.378;2022-11-20T01:11:29;98989.51;;;-2.30;67.39
58785;BME280;44557;51.862;19.378;2022-11-20T01:12:30;98987.69;;;-2.35;67.57
58785;BME280;44557;51.862;19.378;2022-11-20T01:13:32;98984.61;;;-2.38;67.41
58785;BME280;44557;51.862;19.378;2022-11-20T01:14:39;98984.13;;;-2.38;67.37
58785;BME280;44557;51.862;19.378;2022-11-20T01:15:39;98984.56;;;-2.35;67.34
58785;BME280;44557;51.862;19.378;2022-11-20T01:16:43;98986.13;;;-2.34;67.38
58785;BME280;44557;51.862;19.378;2022-11-20T01:17:44;98983.38;;;-2.40;67.51
58785;BME280;44557;51.862;19.378;2022-11-20T01:18:47;98984.52;;;-2.40;67.55
58785;BME280;44557;51.862;19.378;2022-11-20T01:19:49;98981.11;;;-2.39;67.71
58785;BME280;44557;51.862;19.378;2022-11-20T01:20:51;98980.34;;;-2.31;67.46
58785;BME280;44557;51.862;19.378;2022-11-20T01:21:53;98981.59;;;-2.35;67.46
58785;BME280;44557;51.862;19.378;2022-11-20T01:22:55;98978.84;;;-2.35;67.54
58785;BME280;44557;51.862;19.378;2022-11-20T01:23:56;98975.16;;;-2.31;67.33
58785;BME280;44557;51.862;19.378;2022-11-20T01:24:58;98978.79;;;-2.38;67.47
58785;BME280;44557;51.862;19.378;2022-11-20T01:26:08;98976.63;;;-2.36;67.59
58785;BME280;44557;51.862;19.378;2022-11-20T01:27:09;98979.04;;;-2.32;67.30
58785;BME280;44557;51.862;19.378;2022-11-20T01:28:11;98975.27;;;-2.35;67.59
58785;BME280;44557;51.862;19.378;2022-11-20T01:29:21;98973.61;;;-2.37;67.74
58785;BME280;44557;51.862;19.378;2022-11-20T01:30:22;98970.52;;;-2.39;67.79
58785;BME280;44557;51.862;19.378;2022-11-20T01:31:28;98968.70;;;-2.38;67.71
58785;BME280;44557;51.862;19.378;2022-11-20T01:32:29;98968.86;;;-2.41;67.68
58785;BME280;44557;51.862;19.378;2022-11-20T01:33:30;98966.44;;;-2.37;67.48
58785;BME280;44557;51.862;19.378;2022-11-20T01:34:31;98969.89;;;-2.39;67.55
58785;BME280;44557;51.862;19.378;2022-11-20T01:35:32;98966.17;;;-2.43;67.51
58785;BME280;44557;51.862;19.378;2022-11-20T01:36:33;98965.14;;;-2.40;67.75
58785;BME280;44557;51.862;19.378;2022-11-20T01:37:36;98968.86;;;-2.42;67.71
58785;BME280;44557;51.862;19.378;2022-11-20T01:38:37;98964.83;;;-2.44;67.89
58785;BME280;44557;51.862;19.378;2022-11-20T01:39:37;98962.23;;;-2.42;67.84
58785;BME280;44557;51.862;19.378;2022-11-20T01:40:38;98962.88;;;-2.36;67.73
58785;BME280;44557;51.862;19.378;2022-11-20T01:41:39;98959.10;;;-2.39;67.84
58785;BME280;44557;51.862;19.378;2022-11-20T01:43:13;98959.59;;;-2.42;67.72
58785;BME280;44557;51.862;19.378;2022-11-20T01:44:41;98959.73;;;-2.34;67.74
58785;BME280;44557;51.862;19.378;2022-11-20T01:46:17;98961.09;;;-2.34;67.65
58785;BME280;44557;51.862;19.378;2022-11-20T01:47:40;98963.02;;;-2.33;67.61
58785;BME280;44557;51.862;19.378;2022-11-20T01:49:54;98963.04;;;-2.39;67.74
58785;BME280;44557;51.862;19.378;2022-11-20T01:50:57;98963.41;;;-2.37;67.86
58785;BME280;44557;51.862;19.378;2022-11-20T01:52:01;98965.41;;;-2.38;67.48
58785;BME280;44557;51.862;19.378;2022-11-20T01:53:08;98963.20;;;-2.38;67.61
58785;BME280;44557;51.862;19.378;2022-11-20T01:54:17;98964.92;;;-2.33;67.75
58785;BME280;44557;51.862;19.378;2022-11-20T01:55:22;98965.52;;;-2.33;67.54
58785;BME280;44557;51.862;19.378;2022-11-20T01:56:25;98965.12;;;-2.27;67.50
58785;BME280;44557;51.862;19.378;2022-11-20T01:57:30;98965.61;;;-2.29;67.58
58785;BME280;44557;51.862;19.378;2022-11-20T01:58:35;98968.47;;;-2.24;67.62
58785;BME280;44557;51.862;19.378;2022-11-20T01:59:45;98966.40;;;-2.20;67.27
58785;BME280;44557;51.862;19.378;2022-11-20T02:00:48;98969.42;;;-2.17;67.31
58785;BME280;44557;51.862;19.378;2022-11-20T02:01:49;98966.34;;;-2.18;67.30
58785;BME280;44557;51.862;19.378;2022-11-20T02:02:56;98969.59;;;-2.24;67.23
58785;BME280;44557;51.862;19.378;2022-11-20T02:03:59;98968.89;;;-2.22;67.13
58785;BME280;44557;51.862;19.378;2022-11-20T02:05:08;98970.02;;;-2.21;67.14
58785;BME280;44557;51.862;19.378;2022-11-20T02:07:07;98973.10;;;-2.17;67.09
58785;BME280;44557;51.862;19.378;2022-11-20T02:07:43;98973.46;;;-2.19;67.02
58785;BME280;44557;51.862;19.378;2022-11-20T02:08:44;98973.85;;;-2.19;67.12
58785;BME280;44557;51.862;19.378;2022-11-20T02:09:45;98972.77;;;-2.17;66.78
58785;BME280;44557;51.862;19.378;2022-11-20T02:10:46;98973.09;;;-2.20;66.93
58785;BME280;44557;51.862;19.378;2022-11-20T02:11:47;98977.24;;;-2.17;66.94
58785;BME280;44557;51.862;19.378;2022-11-20T02:12:48;98974.73;;;-2.25;67.08
58785;BME280;44557;51.862;19.378;2022-11-20T02:14:08;98977.80;;;-2.24;66.99
58785;BME280;44557;51.862;19.378;2022-11-20T02:15:09;98978.40;;;-2.26;67.06
58785;BME280;44557;51.862;19.378;2022-11-20T02:16:14;98972.67;;;-2.27;66.81
58785;BME280;44557;51.862;19.378;2022-11-20T02:17:16;98976.28;;;-2.29;66.81
58785;BME280;44557;51.862;19.378;2022-11-20T02:18:18;98976.19;;;-2.30;66.97
58785;BME280;44557;51.862;19.378;2022-11-20T02:19:24;98975.48;;;-2.28;67.12
58785;BME280;44557;51.862;19.378;2022-11-20T02:20:27;98973.77;;;-2.32;66.92
58785;BME280;44557;51.862;19.378;2022-11-20T02:23:22;98971.98;;;-2.34;67.05
58785;BME280;44557;51.862;19.378;2022-11-20T02:24:24;98968.05;;;-2.41;67.21
58785;BME280;44557;51.862;19.378;2022-11-20T02:25:26;98971.12;;;-2.38;67.51
58785;BME280;44557;51.862;19.378;2022-11-20T02:26:31;98970.27;;;-2.38;67.22
58785;BME280;44557;51.862;19.378;2022-11-20T02:27:34;98968.33;;;-2.34;67.25
58785;BME280;44557;51.862;19.378;2022-11-20T02:28:35;98968.19;;;-2.30;66.97
58785;BME280;44557;51.862;19.378;2022-11-20T02:29:54;98973.07;;;-2.34;66.82
58785;BME280;44557;51.862;19.378;2022-11-20T02:30:57;98975.23;;;-2.38;66.76
58785;BME280;44557;51.862;19.378;2022-11-20T02:31:59;98971.94;;;-2.39;67.21
58785;BME280;44557;51.862;19.378;2022-11-20T02:33:01;98972.74;;;-2.40;66.84
58785;BME280;44557;51.862;19.378;2022-11-20T02:34:02;98975.71;;;-2.37;66.80
58785;BME280;44557;51.862;19.378;2022-11-20T02:36:31;98969.83;;;-2.35;66.93
58785;BME280;44557;51.862;19.378;2022-11-20T02:37:37;98968.86;;;-2.36;67.27
58785;BME280;44557;51.862;19.378;2022-11-20T02:38:39;98968.66;;;-2.40;67.57
58785;BME280;44557;51.862;19.378;2022-11-20T02:39:41;98968.65;;;-2.38;67.33
58785;BME280;44557;51.862;19.378;2022-11-20T02:40:42;98968.76;;;-2.37;67.40
58785;BME280;44557;51.862;19.378;2022-11-20T02:41:44;98965.03;;;-2.37;67.26
58785;BME280;44557;51.862;19.378;2022-11-20T02:42:45;98967.67;;;-2.38;67.21
58785;BME280;44557;51.862;19.378;2022-11-20T02:43:45;98966.31;;;-2.37;67.28
58785;BME280;44557;51.862;19.378;2022-11-20T02:44:46;98965.73;;;-2.37;67.29
58785;BME280;44557;51.862;19.378;2022-11-20T02:45:47;98963.90;;;-2.38;67.33
58785;BME280;44557;51.862;19.378;2022-11-20T02:46:48;98963.20;;;-2.34;67.31
58785;BME280;44557;51.862;19.378;2022-11-20T02:47:49;98960.92;;;-2.32;67.05
58785;BME280;44557;51.862;19.378;2022-11-20T02:48:50;98961.19;;;-2.33;67.26
58785;BME280;44557;51.862;19.378;2022-11-20T02:49:51;98958.29;;;-2.36;67.22
58785;BME280;44557;51.862;19.378;2022-11-20T02:50:52;98956.02;;;-2.31;66.87
58785;BME280;44557;51.862;19.378;2022-11-20T02:51:53;98954.19;;;-2.35;67.17
58785;BME280;44557;51.862;19.378;2022-11-20T02:52:54;98952.94;;;-2.35;67.09
58785;BME280;44557;51.862;19.378;2022-11-20T02:53:55;98953.85;;;-2.31;67.07
58785;BME280;44557;51.862;19.378;2022-11-20T02:54:56;98953.04;;;-2.28;66.85
58785;BME280;44557;51.862;19.378;2022-11-20T02:55:56;98954.87;;;-2.28;66.90
58785;BME280;44557;51.862;19.378;2022-11-20T02:56:57;98954.92;;;-2.23;66.75
58785;BME280;44557;51.862;19.378;2022-11-20T02:57:58;98954.86;;;-2.19;66.95
58785;BME280;44557;51.862;19.378;2022-11-20T02:58:59;98956.75;;;-2.21;66.93
58785;BME280;44557;51.862;19.378;2022-11-20T03:00:00;98957.61;;;-2.21;66.90
58785;BME280;44557;51.862;19.378;2022-11-20T03:01:01;98953.02;;;-2.17;67.12
58785;BME280;44557;51.862;19.378;2022-11-20T03:02:02;98949.71;;;-2.14;66.83
58785;BME280;44557;51.862;19.378;2022-11-20T03:03:03;98952.15;;;-2.15;66.97
58785;BME280;44557;51.862;19.378;2022-11-20T03:04:04;98949.28;;;-2.16;66.94
58785;BME280;44557;51.862;19.378;2022-11-20T03:05:05;98953.56;;;-2.17;66.89
58785;BME280;44557;51.862;19.378;2022-11-20T03:06:06;98950.91;;;-2.13;66.61
58785;BME280;44557;51.862;19.378;2022-11-20T03:07:08;98952.58;;;-2.16;66.99
58785;BME280;44557;51.862;19.378;2022-11-20T03:08:10;98951.45;;;-2.18;66.83
58785;BME280;44557;51.862;19.378;2022-11-20T03:09:11;98955.23;;;-2.21;66.73
58785;BME280;44557;51.862;19.378;2022-11-20T03:10:12;98952.05;;;-2.17;66.90
58785;BME280;44557;51.862;19.378;2022-11-20T03:11:13;98955.29;;;-2.21;66.73
58785;BME280;44557;51.862;19.378;2022-11-20T03:12:14;98955.14;;;-2.24;66.90
58785;BME280;44557;51.862;19.378;2022-11-20T03:13:15;98948.83;;;-2.28;67.02
58785;BME280;44557;51.862;19.378;2022-11-20T03:14:16;98952.17;;;-2.28;66.86
58785;BME280;44557;51.862;19.378;2022-11-20T03:15:16;98948.08;;;-2.28;66.96
58785;BME280;44557;51.862;19.378;2022-11-20T03:16:20;98947.96;;;-2.24;66.99
58785;BME280;44557;51.862;19.378;2022-11-20T03:17:21;98947.15;;;-2.22;66.94
58785;BME280;44557;51.862;19.378;2022-11-20T03:18:22;98949.85;;;-2.28;67.23
58785;BME280;44557;51.862;19.378;2022-11-20T03:19:23;98950.08;;;-2.28;67.33
58785;BME280;44557;51.862;19.378;2022-11-20T03:20:24;98950.23;;;-2.26;67.29
58785;BME280;44557;51.862;19.378;2022-11-20T03:21:25;98952.92;;;-2.24;67.49
58785;BME280;44557;51.862;19.378;2022-11-20T03:22:29;98953.03;;;-2.29;67.51
58785;BME280;44557;51.862;19.378;2022-11-20T03:23:31;98953.80;;;-2.32;67.50
58785;BME280;44557;51.862;19.378;2022-11-20T03:24:32;98954.73;;;-2.39;67.62
58785;BME280;44557;51.862;19.378;2022-11-20T03:25:33;98950.63;;;-2.37;67.60
58785;BME280;44557;51.862;19.378;2022-11-20T03:26:34;98949.27;;;-2.37;67.73
58785;BME280;44557;51.862;19.378;2022-11-20T03:27:35;98949.77;;;-2.39;67.69
58785;BME280;44557;51.862;19.378;2022-11-20T03:28:36;98947.29;;;-2.35;67.75
58785;BME280;44557;51.862;19.378;2022-11-20T03:29:37;98948.09;;;-2.36;67.78
58785;BME280;44557;51.862;19.378;2022-11-20T03:30:38;98950.42;;;-2.37;67.68
58785;BME280;44557;51.862;19.378;2022-11-20T03:31:40;98953.22;;;-2.37;67.90
58785;BME280;44557;51.862;19.378;2022-11-20T03:32:41;98953.05;;;-2.34;67.90
58785;BME280;44557;51.862;19.378;2022-11-20T03:33:42;98953.39;;;-2.38;67.90
58785;BME280;44557;51.862;19.378;2022-11-20T03:34:43;98950.80;;;-2.41;68.01
58785;BME280;44557;51.862;19.378;2022-11-20T03:35:44;98953.02;;;-2.40;67.84
58785;BME280;44557;51.862;19.378;2022-11-20T03:36:45;98954.35;;;-2.41;67.93
58785;BME280;44557;51.862;19.378;2022-11-20T03:37:46;98955.27;;;-2.40;67.82
58785;BME280;44557;51.862;19.378;2022-11-20T03:38:48;98949.71;;;-2.37;67.90
58785;BME280;44557;51.862;19.378;2022-11-20T03:39:49;98954.73;;;-2.40;68.12
58785;BME280;44557;51.862;19.378;2022-11-20T03:40:49;98953.77;;;-2.37;68.03
58785;BME280;44557;51.862;19.378;2022-11-20T03:41:50;98949.93;;;-2.37;67.94
58785;BME280;44557;51.862;19.378;2022-11-20T03:42:51;98949.89;;;-2.46;68.25
58785;BME280;44557;51.862;19.378;2022-11-20T03:43:55;98948.17;;;-2.49;68.45
58785;BME280;44557;51.862;19.378;2022-11-20T03:44:56;98943.21;;;-2.49;68.49
58785;BME280;44557;51.862;19.378;2022-11-20T03:45:57;98946.39;;;-2.52;68.24
58785;BME280;44557;51.862;19.378;2022-11-20T03:46:58;98949.57;;;-2.50;68.33
58785;BME280;44557;51.862;19.378;2022-11-20T03:47:59;98948.05;;;-2.50;68.31
58785;BME280;44557;51.862;19.378;2022-11-20T03:49:00;98946.06;;;-2.47;68.34
58785;BME280;44557;51.862;19.378;2022-11-20T03:50:01;98947.52;;;-2.47;68.44
58785;BME280;44557;51.862;19.378;2022-11-20T03:51:16;98947.58;;;-2.50;68.50
58785;BME280;44557;51.862;19.378;2022-11-20T03:52:17;98950.53;;;-2.47;68.38
58785;BME280;44557;51.862;19.378;2022-11-20T03:53:19;98952.21;;;-2.44;68.13
58785;BME280;44557;51.862;19.378;2022-11-20T03:54:20;98952.79;;;-2.40;68.06
58785;BME280;44557;51.862;19.378;2022-11-20T03:55:21;98950.27;;;-2.43;68.27
58785;BME280;44557;51.862;19.378;2022-11-20T03:56:24;98949.24;;;-2.45;68.08
58785;BME280;44557;51.862;19.378;2022-11-20T03:57:26;98953.34;;;-2.44;68.04
58785;BME280;44557;51.862;19.378;2022-11-20T03:58:26;98949.66;;;-2.46;68.32
58785;BME280;44557;51.862;19.378;2022-11-20T03:59:27;98951.68;;;-2.51;68.19
58785;BME280;44557;51.862;19.378;2022-11-20T04:00:28;98950.98;;;-2.56;68.64
58785;BME280;44557;51.862;19.378;2022-11-20T04:01:33;98948.67;;;-2.60;68.72
58785;BME280;44557;51.862;19.378;2022-11-20T04:02:34;98946.61;;;-2.52;68.57
58785;BME280;44557;51.862;19.378;2022-11-20T04:03:36;98952.06;;;-2.55;68.75
58785;BME280;44557;51.862;19.378;2022-11-20T04:04:37;98949.23;;;-2.52;68.55
58785;BME280;44557;51.862;19.378;2022-11-20T04:05:38;98948.18;;;-2.62;68.64
58785;BME280;44557;51.862;19.378;2022-11-20T04:06:39;98943.11;;;-2.55;68.57
58785;BME280;44557;51.862;19.378;2022-11-20T04:07:40;98945.96;;;-2.56;68.34
58785;BME280;44557;51.862;19.378;2022-11-20T04:08:41;98945.16;;;-2.55;68.53
58785;BME280;44557;51.862;19.378;2022-11-20T04:09:42;98946.79;;;-2.64;68.62
58785;BME280;44557;51.862;19.378;2022-11-20T04:10:43;98946.89;;;-2.60;68.62
58785;BME280;44557;51.862;19.378;2022-11-20T04:11:44;98946.36;;;-2.59;68.48
58785;BME280;44557;51.862;19.378;2022-11-20T04:12:45;98947.42;;;-2.62;68.50
58785;BME280;44557;51.862;19.378;2022-11-20T04:13:49;98947.27;;;-2.63;68.77
58785;BME280;44557;51.862;19.378;2022-11-20T04:14:50;98950.23;;;-2.65;68.59
58785;BME280;44557;51.862;19.378;2022-11-20T04:15:57;98949.39;;;-2.77;68.89
58785;BME280;44557;51.862;19.378;2022-11-20T04:16:58;98944.79;;;-2.79;69.24
58785;BME280;44557;51.862;19.378;2022-11-20T04:17:59;98948.52;;;-2.77;69.05
58785;BME280;44557;51.862;19.378;2022-11-20T04:19:02;98951.00;;;-2.82;69.23
58785;BME280;44557;51.862;19.378;2022-11-20T04:20:04;98947.83;;;-2.88;69.35
58785;BME280;44557;51.862;19.378;2022-11-20T04:21:05;98951.05;;;-2.84;69.49
58785;BME280;44557;51.862;19.378;2022-11-20T04:22:06;98947.39;;;-2.81;69.45
58785;BME280;44557;51.862;19.378;2022-11-20T04:23:07;98945.66;;;-2.78;69.52
58785;BME280;44557;51.862;19.378;2022-11-20T04:24:08;98946.69;;;-2.87;69.78
58785;BME280;44557;51.862;19.378;2022-11-20T04:25:09;98944.69;;;-2.87;69.77
58785;BME280;44557;51.862;19.378;2022-11-20T04:26:11;98948.95;;;-2.91;69.90
58785;BME280;44557;51.862;19.378;2022-11-20T04:27:12;98947.87;;;-2.91;70.15
58785;BME280;44557;51.862;19.378;2022-11-20T04:28:13;98940.71;;;-2.90;70.09
58785;BME280;44557;51.862;19.378;2022-11-20T04:29:14;98943.13;;;-2.98;70.18
58785;BME280;44557;51.862;19.378;2022-11-20T04:30:15;98940.65;;;-3.03;70.59
58785;BME280;44557;51.862;19.378;2022-11-20T04:31:18;98941.94;;;-2.99;70.69
58785;BME280;44557;51.862;19.378;2022-11-20T04:32:19;98938.23;;;-2.97;70.26
58785;BME280;44557;51.862;19.378;2022-11-20T04:33:20;98939.20;;;-2.96;70.44
58785;BME280;44557;51.862;19.378;2022-11-20T04:34:21;98938.16;;;-2.96;70.27
58785;BME280;44557;51.862;19.378;2022-11-20T04:35:22;98940.45;;;-2.92;70.44
58785;BME280;44557;51.862;19.378;2022-11-20T04:36:26;98939.41;;;-2.87;70.41
58785;BME280;44557;51.862;19.378;2022-11-20T04:37:28;98936.33;;;-2.77;69.99
58785;BME280;44557;51.862;19.378;2022-11-20T04:38:29;98935.85;;;-2.79;69.86
58785;BME280;44557;51.862;19.378;2022-11-20T04:39:30;98936.13;;;-2.85;70.03
58785;BME280;44557;51.862;19.378;2022-11-20T04:40:31;98931.02;;;-2.84;70.16
58785;BME280;44557;51.862;19.378;2022-11-20T04:41:34;98934.35;;;-2.89;70.07
58785;BME280;44557;51.862;19.378;2022-11-20T04:42:36;98932.02;;;-2.93;70.39
58785;BME280;44557;51.862;19.378;2022-11-20T04:43:36;98934.67;;;-2.91;70.45
58785;BME280;44557;51.862;19.378;2022-11-20T04:44:37;98934.56;;;-3.00;70.66
58785;BME280;44557;51.862;19.378;2022-11-20T04:45:38;98932.56;;;-2.95;70.65
58785;BME280;44557;51.862;19.378;2022-11-20T04:46:41;98932.40;;;-2.92;70.62
58785;BME280;44557;51.862;19.378;2022-11-20T04:47:42;98929.65;;;-2.94;70.60
58785;BME280;44557;51.862;19.378;2022-11-20T04:48:43;98931.82;;;-2.98;70.43
58785;BME280;44557;51.862;19.378;2022-11-20T04:49:44;98927.55;;;-2.96;70.58
58785;BME280;44557;51.862;19.378;2022-11-20T04:50:45;98929.83;;;-3.00;70.66
58785;BME280;44557;51.862;19.378;2022-11-20T04:51:46;98924.70;;;-3.06;70.73
58785;BME280;44557;51.862;19.378;2022-11-20T04:52:47;98923.20;;;-3.04;70.85
58785;BME280;44557;51.862;19.378;2022-11-20T04:53:48;98923.55;;;-3.10;70.79
58785;BME280;44557;51.862;19.378;2022-11-20T04:54:49;98928.58;;;-3.11;71.13
58785;BME280;44557;51.862;19.378;2022-11-20T04:56:03;98922.43;;;-3.13;71.26
58785;BME280;44557;51.862;19.378;2022-11-20T04:57:05;98923.29;;;-3.19;71.46
58785;BME280;44557;51.862;19.378;2022-11-20T04:58:07;98924.41;;;-3.21;71.53
58785;BME280;44557;51.862;19.378;2022-11-20T04:59:07;98924.86;;;-3.14;71.57
58785;BME280;44557;51.862;19.378;2022-11-20T05:00:09;98925.45;;;-3.10;71.24
58785;BME280;44557;51.862;19.378;2022-11-20T05:01:13;98927.61;;;-3.11;71.29
58785;BME280;44557;51.862;19.378;2022-11-20T05:02:14;98925.44;;;-3.21;71.63
58785;BME280;44557;51.862;19.378;2022-11-20T05:03:15;98925.27;;;-3.28;71.97
58785;BME280;44557;51.862;19.378;2022-11-20T05:04:16;98924.37;;;-3.23;71.82
58785;BME280;44557;51.862;19.378;2022-11-20T05:05:17;98925.16;;;-3.19;71.83
58785;BME280;44557;51.862;19.378;2022-11-20T05:06:20;98925.07;;;-3.22;71.69
58785;BME280;44557;51.862;19.378;2022-11-20T05:07:21;98924.09;;;-3.20;71.69
58785;BME280;44557;51.862;19.378;2022-11-20T05:08:22;98922.65;;;-3.17;71.74
58785;BME280;44557;51.862;19.378;2022-11-20T05:09:23;98923.50;;;-3.08;71.66
58785;BME280;44557;51.862;19.378;2022-11-20T05:10:25;98924.79;;;-3.11;71.38
58785;BME280;44557;51.862;19.378;2022-11-20T05:11:26;98924.48;;;-3.12;71.61
58785;BME280;44557;51.862;19.378;2022-11-20T05:12:29;98924.10;;;-3.13;71.35
58785;BME280;44557;51.862;19.378;2022-11-20T05:13:30;98928.90;;;-3.11;71.47
58785;BME280;44557;51.862;19.378;2022-11-20T05:14:31;98931.48;;;-3.15;71.37
58785;BME280;44557;51.862;19.378;2022-11-20T05:15:32;98927.64;;;-3.18;71.67
58785;BME280;44557;51.862;19.378;2022-11-20T05:16:34;98929.91;;;-3.17;71.77
58785;BME280;44557;51.862;19.378;2022-11-20T05:17:36;98925.60;;;-3.19;71.73
58785;BME280;44557;51.862;19.378;2022-11-20T05:18:37;98924.91;;;-3.13;71.77
58785;BME280;44557;51.862;19.378;2022-11-20T05:19:39;98925.88;;;-3.15;71.78
58785;BME280;44557;51.862;19.378;2022-11-20T05:20:39;98923.45;;;-3.19;71.98
58785;BME280;44557;51.862;19.378;2022-11-20T05:21:40;98920.48;;;-3.22;72.05
58785;BME280;44557;51.862;19.378;2022-11-20T05:22:41;98921.72;;;-3.27;72.25
58785;BME280;44557;51.862;19.378;2022-11-20T05:23:44;98922.09;;;-3.31;72.45
58785;BME280;44557;51.862;19.378;2022-11-20T05:24:45;98920.89;;;-3.38;72.72
58785;BME280;44557;51.862;19.378;2022-11-20T05:25:46;98924.14;;;-3.34;72.94
58785;BME280;44557;51.862;19.378;2022-11-20T05:26:46;98922.04;;;-3.35;72.98
58785;BME280;44557;51.862;19.378;2022-11-20T05:27:47;98924.09;;;-3.32;72.80
58785;BME280;44557;51.862;19.378;2022-11-20T05:28:49;98920.08;;;-3.40;73.10
58785;BME280;44557;51.862;19.378;2022-11-20T05:29:50;98926.11;;;-3.43;73.11
58785;BME280;44557;51.862;19.378;2022-11-20T05:30:51;98922.81;;;-3.49;73.62
58785;BME280;44557;51.862;19.378;2022-11-20T05:31:52;98927.13;;;-3.45;73.42